createdAt,value
2018-09-03T00:00:46.464Z,19.55
2018-09-03T00:03:17.783Z,21.25
2018-09-03T00:05:47.282Z,21.25
2018-09-03T00:08:16.745Z,19.48
2018-09-03T00:10:46.228Z,19.60
2018-09-03T00:13:15.746Z,19.98
2018-09-03T00:15:45.197Z,20.32
2018-09-03T00:18:14.595Z,20.48
2018-09-03T00:20:44.813Z,20.43
2018-09-03T00:23:14.274Z,20.05
2018-09-03T00:25:43.761Z,21.42
2018-09-03T00:28:13.225Z,21.55
2018-09-03T00:30:42.717Z,20.60
2018-09-03T00:33:17.398Z,23.40
2018-09-03T00:35:51.863Z,20.75
2018-09-03T00:40:32.376Z,22.42
2018-09-03T00:43:06.874Z,20.08
2018-09-03T00:45:41.576Z,19.67
2018-09-03T00:48:11.089Z,22.37
2018-09-03T00:50:40.593Z,24.07
2018-09-03T00:53:10.021Z,22.55
2018-09-03T00:55:39.506Z,22.17
2018-09-03T00:58:09.026Z,21.62
2018-09-03T01:00:39.090Z,21.75
2018-09-03T01:03:08.530Z,19.32
2018-09-03T01:05:38.927Z,19.92
2018-09-03T01:08:09.148Z,22.27
2018-09-03T01:10:38.676Z,21.35
2018-09-03T01:13:08.123Z,21.60
2018-09-03T01:15:37.612Z,20.95
2018-09-03T01:18:07.056Z,22.22
2018-09-03T01:20:36.487Z,22.65
2018-09-03T01:23:05.914Z,21.85
2018-09-03T01:25:35.325Z,22.67
2018-09-03T01:28:04.755Z,21.50
2018-09-03T01:30:34.211Z,20.65
2018-09-03T01:33:03.586Z,22.62
2018-09-03T01:35:33.533Z,21.75
2018-09-03T01:38:02.974Z,22.60
2018-09-03T01:40:32.415Z,21.68
2018-09-03T01:43:01.932Z,22.10
2018-09-03T01:45:31.299Z,22.17
2018-09-03T01:48:00.853Z,21.60
2018-09-03T01:50:30.439Z,22.37
2018-09-03T01:52:59.964Z,21.00
2018-09-03T01:55:29.516Z,22.10
2018-09-03T01:57:58.975Z,22.32
2018-09-03T02:00:28.396Z,21.93
2018-09-03T02:02:57.883Z,21.25
2018-09-03T02:05:27.319Z,20.90
2018-09-03T02:07:57.189Z,20.65
2018-09-03T02:10:26.591Z,21.15
2018-09-03T02:12:55.977Z,21.27
2018-09-03T02:15:25.456Z,19.02
2018-09-03T02:17:54.975Z,21.55
2018-09-03T02:20:24.399Z,20.37
2018-09-03T02:22:53.897Z,20.05
2018-09-03T02:25:23.396Z,19.50
2018-09-03T02:27:52.876Z,18.12
2018-09-03T09:51:55.770Z,24.00
2018-09-03T09:54:25.239Z,20.57
2018-09-03T09:56:54.684Z,20.27
2018-09-03T09:59:24.339Z,19.27
2018-09-03T10:01:53.703Z,20.27
2018-09-03T10:04:23.177Z,18.70
2018-09-03T10:06:52.604Z,20.45
2018-09-03T10:09:23.552Z,20.55
2018-09-03T10:11:53.074Z,18.62
2018-09-03T10:14:22.626Z,17.25
2018-09-03T10:16:53.272Z,16.67
2018-09-03T10:19:23.394Z,18.57
2018-09-03T10:21:52.889Z,17.75
2018-09-03T10:24:23.397Z,16.50
2018-09-03T10:26:53.507Z,14.47
2018-09-03T10:29:22.969Z,15.75
2018-09-03T10:31:52.465Z,13.68
2018-09-03T10:34:21.785Z,14.55
2018-09-03T10:36:51.267Z,13.50
2018-09-03T10:39:20.779Z,14.58
2018-09-03T10:41:50.245Z,15.40
2018-09-03T10:44:19.743Z,12.60
2018-09-03T10:46:50.179Z,14.68
2018-09-03T10:52:01.639Z,14.03
2018-09-03T10:54:31.022Z,14.95
2018-09-03T10:57:00.424Z,15.75
2018-09-03T10:59:29.863Z,14.90
2018-09-03T11:01:59.338Z,15.95
2018-09-03T11:04:28.774Z,17.57
2018-09-03T11:06:58.251Z,19.35
2018-09-03T11:09:27.719Z,18.10
2018-09-03T11:11:57.327Z,18.87
2018-09-03T11:14:26.773Z,19.55
2018-09-03T11:16:56.536Z,20.45
2018-09-03T11:19:28.689Z,20.70
2018-09-03T11:21:58.320Z,18.42
2018-09-03T11:24:28.073Z,18.40
2018-09-03T11:26:57.603Z,18.65
2018-09-03T11:29:27.034Z,18.00
2018-09-03T11:31:56.622Z,18.05
2018-09-03T11:34:26.091Z,18.60
2018-09-03T11:36:55.481Z,18.52
2018-09-03T11:39:24.932Z,17.67
2018-09-03T11:41:54.520Z,18.75
2018-09-03T11:44:24.096Z,19.40
2018-09-03T11:46:53.644Z,18.50
2018-09-03T11:49:23.197Z,18.30
2018-09-03T11:51:52.754Z,20.85
2018-09-03T11:54:22.449Z,19.25
2018-09-03T11:56:51.878Z,20.40
2018-09-03T11:59:21.355Z,19.70
2018-09-03T12:01:50.744Z,20.40
2018-09-03T12:04:20.215Z,19.87
2018-09-03T12:06:49.808Z,18.00
2018-09-03T12:09:19.365Z,18.45
2018-09-03T12:11:48.999Z,18.75
2018-09-03T12:14:22.381Z,17.10
2018-09-03T12:16:52.028Z,16.45
2018-09-03T12:19:21.602Z,17.15
2018-09-03T12:21:51.131Z,15.55
2018-09-03T12:24:20.508Z,16.17
2018-09-03T12:26:50.152Z,17.75
2018-09-03T12:29:19.501Z,17.25
2018-09-03T12:31:48.896Z,15.65
2018-09-03T12:34:18.350Z,16.95
2018-09-03T12:36:47.923Z,17.15
2018-09-03T12:39:17.314Z,15.28
2018-09-03T12:41:46.816Z,15.95
2018-09-03T12:44:17.480Z,16.17
2018-09-03T12:46:47.145Z,15.43
2018-09-03T12:49:16.662Z,14.00
2018-09-03T12:51:46.256Z,14.60
2018-09-03T12:54:15.742Z,13.55
2018-09-03T12:56:45.202Z,12.68
2018-09-03T12:59:14.828Z,13.95
2018-09-03T13:01:44.294Z,14.00
2018-09-03T13:04:13.700Z,13.25
2018-09-03T13:06:43.173Z,12.50
2018-09-03T13:09:12.625Z,13.20
2018-09-03T13:11:42.054Z,10.53
2018-09-03T13:14:11.630Z,12.30
2018-09-03T13:16:41.179Z,13.60
2018-09-03T13:19:10.637Z,12.40
2018-09-03T13:21:40.165Z,11.85
2018-09-03T13:24:09.576Z,13.80
2018-09-03T13:26:38.995Z,13.32
2018-09-03T13:29:08.449Z,12.50
2018-09-03T13:31:37.964Z,14.10
2018-09-03T13:34:07.426Z,14.40
2018-09-03T13:36:36.852Z,13.30
2018-09-03T13:39:09.496Z,12.43
2018-09-03T13:41:39.019Z,13.90
2018-09-03T13:44:08.727Z,13.88
2018-09-03T13:46:38.089Z,14.20
2018-09-03T13:49:07.567Z,15.68
2018-09-03T13:51:37.025Z,16.75
2018-09-03T13:54:06.869Z,15.28
2018-09-03T13:56:36.433Z,16.48
2018-09-03T13:59:05.948Z,16.97
2018-09-03T14:01:35.471Z,16.75
2018-09-03T14:04:04.967Z,15.65
2018-09-03T14:06:34.609Z,15.20
2018-09-03T14:09:05.515Z,14.30
2018-09-03T14:11:34.930Z,13.80
2018-09-03T14:14:04.364Z,13.98
2018-09-03T14:16:33.906Z,13.35
2018-09-03T14:19:03.291Z,14.65
2018-09-03T14:21:32.821Z,14.10
2018-09-03T14:24:02.138Z,12.88
2018-09-03T14:26:31.516Z,13.72
2018-09-03T14:29:00.959Z,13.43
2018-09-03T14:31:30.331Z,14.18
2018-09-03T14:33:59.755Z,13.28
2018-09-03T14:36:29.149Z,14.63
2018-09-03T14:38:58.680Z,13.22
2018-09-03T14:41:28.091Z,14.47
2018-09-03T14:43:57.539Z,14.55
2018-09-03T14:46:26.995Z,14.13
2018-09-03T14:48:56.405Z,12.73
2018-09-03T14:51:25.874Z,13.68
2018-09-03T14:53:55.301Z,16.07
2018-09-03T14:56:24.768Z,16.90
2018-09-03T14:58:55.250Z,15.30
2018-09-03T15:01:24.784Z,12.75
2018-09-03T15:03:54.405Z,11.40
2018-09-03T15:06:24.064Z,11.40
2018-09-03T15:08:53.619Z,13.58
2018-09-03T15:11:23.123Z,13.45
2018-09-03T15:14:01.005Z,12.82
2018-09-03T15:16:32.021Z,12.23
2018-09-03T15:19:03.689Z,13.65
2018-09-03T15:21:33.845Z,12.40
2018-09-03T15:24:03.700Z,12.10
2018-09-03T15:26:33.096Z,12.33
2018-09-03T15:29:02.540Z,11.85
2018-09-03T15:31:31.967Z,10.35
2018-09-03T15:34:01.400Z,9.85
2018-09-03T15:36:31.053Z,9.73
2018-09-03T15:39:00.514Z,9.83
2018-09-03T15:41:29.895Z,10.60
2018-09-03T15:43:59.324Z,9.33
2018-09-03T15:46:28.707Z,10.20
2018-09-03T15:48:58.147Z,10.08
2018-09-03T15:51:27.529Z,9.15
2018-09-03T15:53:57.035Z,8.58
2018-09-03T15:56:26.477Z,7.85
2018-09-03T15:58:56.135Z,9.80
2018-09-03T16:01:25.564Z,9.10
2018-09-03T16:03:55.687Z,6.22
2018-09-03T16:06:25.092Z,8.20
2018-09-03T16:08:54.480Z,6.00
2018-09-03T16:11:23.957Z,6.85
2018-09-03T16:13:54.367Z,6.45
2018-09-03T16:16:23.797Z,6.92
2018-09-03T16:18:53.442Z,8.03
2018-09-03T16:21:22.908Z,6.70
2018-09-03T16:23:52.412Z,7.45
2018-09-03T16:26:21.778Z,6.00
2018-09-03T16:28:51.235Z,6.72
2018-09-03T16:31:20.711Z,6.25
2018-09-03T16:33:50.211Z,7.00
2018-09-03T16:36:19.760Z,5.80
2018-09-03T16:38:49.177Z,6.30
2018-09-03T16:41:19.428Z,7.20
2018-09-03T16:43:49.264Z,6.42
2018-09-03T16:46:19.248Z,7.08
2018-09-03T16:48:48.913Z,6.58
2018-09-03T16:51:18.557Z,6.80
2018-09-03T16:53:47.987Z,6.53
2018-09-03T16:56:17.475Z,7.70
2018-09-03T16:58:47.007Z,7.50
2018-09-03T17:01:22.836Z,7.47
2018-09-03T17:03:52.518Z,7.42
2018-09-03T17:06:22.472Z,6.55
2018-09-03T17:08:52.222Z,7.28
2018-09-03T17:11:22.051Z,7.95
2018-09-03T17:13:51.689Z,7.62
2018-09-03T17:16:21.399Z,8.50
2018-09-03T17:18:51.211Z,6.60
2018-09-03T17:21:20.875Z,6.80
2018-09-03T17:23:50.375Z,7.22
2018-09-03T17:26:20.053Z,6.75
2018-09-03T17:28:49.680Z,7.35
2018-09-03T17:31:20.665Z,7.37
2018-09-03T17:33:50.890Z,8.43
2018-09-03T17:36:20.913Z,8.38
2018-09-03T17:38:50.367Z,8.75
2018-09-03T17:41:19.890Z,8.15
2018-09-03T17:43:49.425Z,7.50
2018-09-03T17:46:19.599Z,7.97
2018-09-03T17:48:49.127Z,8.28
2018-09-03T17:51:18.543Z,7.45
2018-09-03T17:53:47.945Z,7.65
2018-09-03T17:56:17.499Z,8.68
2018-09-03T17:58:47.383Z,8.00
2018-09-03T18:01:16.912Z,8.73
2018-09-03T18:03:46.397Z,8.28
2018-09-03T18:06:15.929Z,7.58
2018-09-03T18:08:45.533Z,8.15
2018-09-03T18:11:14.961Z,7.87
2018-09-03T18:13:45.271Z,8.60
2018-09-03T18:16:14.776Z,8.48
2018-09-03T18:18:44.398Z,8.23
2018-09-03T18:21:14.149Z,8.35
2018-09-03T18:23:43.806Z,7.72
2018-09-03T18:26:13.324Z,7.85
2018-09-03T18:28:43.061Z,7.92
2018-09-03T18:31:13.000Z,8.25
2018-09-03T18:33:42.774Z,8.80
2018-09-03T18:36:12.988Z,8.40
2018-09-03T18:38:43.454Z,8.05
2018-09-03T18:41:13.077Z,8.88
2018-09-03T18:43:45.200Z,8.20
2018-09-03T18:46:14.777Z,8.88
2018-09-03T18:48:44.587Z,8.80
2018-09-03T18:51:16.164Z,8.18
2018-09-03T18:53:47.035Z,8.75
2018-09-03T18:56:17.414Z,9.48
2018-09-03T18:58:47.456Z,8.50
2018-09-03T19:01:17.131Z,8.60
2018-09-03T19:03:47.260Z,8.58
2018-09-03T19:06:16.880Z,9.00
2018-09-03T19:08:46.506Z,7.90
2018-09-03T19:11:16.549Z,9.15
2018-09-03T19:13:46.222Z,8.85
2018-09-03T19:16:15.883Z,8.85
2018-09-03T19:18:46.745Z,9.05
2018-09-03T19:21:17.650Z,8.93
2018-09-03T19:23:47.784Z,9.85
2018-09-03T19:26:17.654Z,9.80
2018-09-03T19:28:47.294Z,10.60
2018-09-03T19:31:17.049Z,8.90
2018-09-03T19:33:46.664Z,9.68
2018-09-03T19:36:16.208Z,8.93
2018-09-03T19:38:45.708Z,9.30
2018-09-03T19:41:15.427Z,10.03
2018-09-03T19:43:45.067Z,9.73
2018-09-03T19:46:15.158Z,10.15
2018-09-03T19:48:45.009Z,11.05
2018-09-03T19:51:14.635Z,10.93
2018-09-03T19:53:44.212Z,9.70
2018-09-03T19:56:13.792Z,10.35
2018-09-03T19:58:43.460Z,10.58
2018-09-03T20:01:13.159Z,10.85
2018-09-03T20:03:43.351Z,10.20
2018-09-03T20:06:12.997Z,9.93
2018-09-03T20:08:42.687Z,10.82
2018-09-03T20:11:12.277Z,10.65
2018-09-03T20:13:41.692Z,10.53
2018-09-03T20:16:11.141Z,10.85
2018-09-03T20:18:40.649Z,10.85
2018-09-03T20:21:10.821Z,11.18
2018-09-03T20:23:40.480Z,11.28
2018-09-03T20:26:09.991Z,10.98
2018-09-03T20:28:39.409Z,11.85
2018-09-03T20:31:08.933Z,10.15
2018-09-03T20:33:38.485Z,10.65
2018-09-03T20:36:07.926Z,11.20
2018-09-03T20:38:37.815Z,10.75
2018-09-03T20:41:07.350Z,10.75
2018-09-03T20:43:36.775Z,10.60
2018-09-03T20:46:06.139Z,11.15
2018-09-03T20:48:35.573Z,10.60
2018-09-03T20:51:05.849Z,11.22
2018-09-03T20:53:35.295Z,9.90
2018-09-03T20:56:04.803Z,12.03
2018-09-03T20:58:34.495Z,12.90
2018-09-03T21:01:03.953Z,12.68
2018-09-03T21:03:33.289Z,11.63
2018-09-03T21:06:02.780Z,12.25
2018-09-03T21:08:32.231Z,11.05
2018-09-03T21:11:01.771Z,10.00
2018-09-03T21:13:31.758Z,10.50
2018-09-03T21:16:01.351Z,11.55
2018-09-03T21:18:30.957Z,12.53
2018-09-03T21:21:00.443Z,10.85
2018-09-03T21:23:29.894Z,11.18
2018-09-03T21:25:59.340Z,11.33
2018-09-03T21:28:29.344Z,12.90
2018-09-03T21:30:58.757Z,11.00
2018-09-03T21:33:28.175Z,11.50
2018-09-03T21:35:57.577Z,11.50
2018-09-03T21:38:27.005Z,12.23
2018-09-03T21:40:56.557Z,11.90
2018-09-03T21:43:26.096Z,11.75
2018-09-03T21:45:55.585Z,12.00
2018-09-03T21:48:25.054Z,12.25
2018-09-03T21:50:54.495Z,11.40
2018-09-03T21:53:23.860Z,11.18
2018-09-03T21:55:53.338Z,11.20
2018-09-03T21:58:22.777Z,11.48
2018-09-03T22:00:52.386Z,11.95
2018-09-03T22:03:21.861Z,10.63
2018-09-03T22:05:58.007Z,11.85
2018-09-03T22:08:27.533Z,10.95
2018-09-03T22:10:56.978Z,11.22
2018-09-03T22:13:26.406Z,11.55
2018-09-03T22:15:56.016Z,12.58
2018-09-03T22:18:25.490Z,10.00
2018-09-03T22:20:55.020Z,12.10
2018-09-03T22:23:24.386Z,11.48
2018-09-03T22:25:53.855Z,11.08
2018-09-03T22:28:23.396Z,11.30
2018-09-03T22:30:52.979Z,11.68
2018-09-03T22:33:22.524Z,11.73
2018-09-03T22:35:52.068Z,12.65
2018-09-03T22:38:21.646Z,11.63
2018-09-03T22:40:51.089Z,11.10
2018-09-03T22:43:20.617Z,10.78
2018-09-03T22:45:49.940Z,11.63
2018-09-03T22:48:19.468Z,12.45
2018-09-03T22:50:50.152Z,11.00
2018-09-03T22:53:19.571Z,10.70
2018-09-03T22:55:49.681Z,10.58
2018-09-03T22:58:19.040Z,10.15
2018-09-03T23:00:48.948Z,11.35
2018-09-03T23:03:18.369Z,12.37
2018-09-03T23:05:48.671Z,10.58
2018-09-03T23:08:18.028Z,10.60
2018-09-03T23:10:47.404Z,10.43
2018-09-03T23:13:16.785Z,11.08
2018-09-03T23:15:51.201Z,11.22
2018-09-03T23:18:21.707Z,9.88
2018-09-03T23:20:51.434Z,11.15
2018-09-03T23:23:21.050Z,10.85
2018-09-03T23:25:50.588Z,10.48
2018-09-03T23:28:20.008Z,11.57
2018-09-03T23:30:49.420Z,11.68
2018-09-03T23:33:18.858Z,10.18
2018-09-03T23:35:49.342Z,10.72
2018-09-03T23:38:18.794Z,11.33
2018-09-03T23:40:48.832Z,10.38
2018-09-03T23:43:18.291Z,10.28
2018-09-03T23:45:47.650Z,10.53
2018-09-03T23:48:17.021Z,11.30
2018-09-03T23:50:46.467Z,11.53
2018-09-03T23:53:16.872Z,10.70
2018-09-03T23:55:46.290Z,9.98
2018-09-03T23:58:15.706Z,10.80
